createdAt,value
2023-03-06T00:42:38.672Z,432.00
2023-03-06T00:44:37.741Z,436.00
2023-03-06T00:45:37.806Z,436.00
2023-03-06T00:46:37.799Z,434.00
2023-03-06T00:47:37.844Z,434.00
2023-03-06T00:48:37.901Z,434.00
2023-03-06T00:49:38.652Z,432.00
2023-03-06T00:50:37.985Z,432.00
2023-03-06T00:51:38.014Z,431.00
2023-03-06T00:52:38.052Z,428.00
2023-03-06T00:53:38.093Z,428.00
2023-03-06T00:54:38.135Z,429.00
2023-03-06T00:55:38.180Z,429.00
2023-03-06T00:56:38.236Z,431.00
2023-03-06T00:57:38.253Z,431.00
2023-03-06T00:58:38.375Z,432.00
2023-03-06T00:59:38.348Z,433.00
2023-03-06T01:00:38.431Z,435.00
2023-03-06T01:01:38.518Z,436.00
2023-03-06T01:02:38.463Z,434.00
2023-03-06T01:03:38.512Z,433.00
2023-03-06T01:04:38.626Z,432.00
2023-03-06T01:05:38.607Z,432.00
2023-03-06T01:06:38.649Z,433.00
2023-03-06T01:07:38.701Z,434.00
2023-03-06T01:08:38.737Z,434.00
2023-03-06T01:09:38.773Z,434.00
2023-03-06T01:10:38.809Z,434.00
2023-03-06T01:11:38.854Z,435.00
2023-03-06T01:12:38.984Z,437.00
2023-03-06T01:13:39.031Z,435.00
2023-03-06T01:14:38.992Z,434.00
2023-03-06T01:15:39.037Z,432.00
2023-03-06T01:16:39.093Z,431.00
2023-03-06T01:17:39.120Z,430.00
2023-03-06T01:18:39.164Z,431.00
2023-03-06T01:19:39.205Z,431.00
2023-03-06T01:20:39.374Z,428.00
2023-03-06T01:21:39.297Z,427.00
2023-03-06T01:22:39.358Z,425.00
2023-03-06T01:23:39.378Z,427.00
2023-03-06T01:24:39.428Z,428.00
2023-03-06T01:25:39.476Z,431.00
2023-03-06T01:26:39.519Z,433.00
2023-03-06T01:27:39.570Z,434.00
2023-03-06T01:28:39.619Z,432.00
2023-03-06T01:29:39.705Z,432.00
2023-03-06T01:30:39.703Z,430.00
2023-03-06T01:31:39.813Z,430.00
2023-03-06T01:32:39.958Z,428.00
2023-03-06T01:33:39.835Z,427.00
2023-03-06T01:34:39.871Z,423.00
2023-03-06T01:35:39.945Z,423.00
2023-03-06T01:36:39.942Z,425.00
2023-03-06T01:37:39.997Z,426.00
2023-03-06T01:38:40.039Z,426.00
2023-03-06T01:39:40.082Z,426.00
2023-03-06T01:40:40.115Z,427.00
2023-03-06T01:41:40.149Z,429.00
2023-03-06T01:42:40.197Z,428.00
2023-03-06T01:43:40.248Z,425.00
2023-03-06T01:44:40.275Z,426.00
2023-03-06T01:45:40.319Z,425.00
2023-03-06T01:46:40.368Z,424.00
2023-03-06T01:47:40.408Z,423.00
2023-03-06T01:48:40.444Z,425.00
2023-03-06T01:49:40.589Z,426.00
2023-03-06T01:50:40.526Z,425.00
2023-03-06T01:51:40.571Z,427.00
2023-03-06T01:52:40.608Z,427.00
2023-03-06T01:53:40.643Z,425.00
2023-03-06T01:54:40.693Z,429.00
2023-03-06T01:55:40.734Z,427.00
2023-03-06T06:39:47.784Z,977.00
2023-03-06T07:12:47.748Z,1870.00
2023-03-06T07:13:48.761Z,1891.00
2023-03-06T07:17:49.915Z,2007.00
2023-03-06T08:07:47.822Z,2324.00
2023-03-06T08:21:47.829Z,1383.00
2023-03-06T08:42:47.837Z,641.00
2023-03-06T08:43:47.846Z,635.00
2023-03-06T08:51:47.717Z,566.00
2023-03-06T08:52:47.761Z,555.00
2023-03-06T08:53:47.807Z,547.00
2023-03-06T08:54:47.803Z,531.00
2023-03-06T08:55:47.812Z,524.00
2023-03-06T08:56:47.810Z,518.00
2023-03-06T08:57:47.821Z,517.00
2023-03-06T08:58:47.836Z,510.00
2023-03-06T08:59:47.856Z,502.00
2023-03-06T09:00:47.942Z,496.00
2023-03-06T09:01:47.894Z,488.00
2023-03-06T09:02:47.922Z,483.00
2023-03-06T09:03:47.935Z,478.00
2023-03-06T09:04:47.947Z,481.00
2023-03-06T09:05:47.969Z,482.00
2023-03-06T09:07:48.011Z,468.00
2023-03-06T09:08:48.044Z,466.00
2023-03-06T09:09:48.057Z,464.00
2023-03-06T09:10:48.119Z,459.00
2023-03-06T09:11:48.090Z,461.00
2023-03-06T09:12:51.221Z,458.00
2023-03-06T09:13:48.081Z,453.00
2023-03-06T09:14:48.314Z,465.00
2023-03-06T09:15:48.071Z,509.00
2023-03-06T09:16:48.256Z,528.00
2023-03-06T09:17:48.169Z,593.00
2023-03-06T09:18:48.067Z,615.00
2023-03-06T09:19:48.038Z,645.00
2023-03-06T09:20:48.038Z,679.00
2023-03-06T09:21:48.027Z,698.00
2023-03-06T09:22:48.026Z,710.00
2023-03-06T09:23:48.020Z,730.00
2023-03-06T09:25:48.011Z,796.00
2023-03-06T09:26:49.872Z,924.00
2023-03-06T09:28:47.977Z,761.00
2023-03-06T09:33:47.963Z,905.00
2023-03-06T09:34:47.948Z,930.00
2023-03-06T09:35:47.996Z,960.00
2023-03-06T09:36:56.900Z,974.00
2023-03-06T09:38:47.980Z,1038.00
2023-03-06T09:39:47.924Z,1046.00
2023-03-06T09:40:47.913Z,1068.00
2023-03-06T13:04:54.949Z,2373.00
2023-03-06T14:14:53.305Z,2174.00
2023-03-06T14:15:53.452Z,2174.00
2023-03-06T14:16:53.482Z,2172.00
2023-03-06T14:17:53.471Z,2164.00
2023-03-06T14:18:53.523Z,2162.00
2023-03-06T14:19:53.582Z,2161.00
2023-03-06T14:28:53.939Z,2132.00
2023-03-06T14:54:54.210Z,2078.00
2023-03-06T14:55:54.105Z,2074.00
2023-03-06T14:56:54.137Z,2069.00
2023-03-06T14:57:54.114Z,2067.00
2023-03-06T14:58:54.122Z,2065.00
2023-03-06T14:59:54.112Z,2065.00
2023-03-06T15:00:54.230Z,2063.00
2023-03-06T15:01:54.127Z,2060.00
2023-03-06T15:02:54.173Z,2056.00
2023-03-06T15:03:54.134Z,2050.00
2023-03-06T15:04:54.141Z,2047.00
2023-03-06T15:05:54.153Z,2044.00
2023-03-06T15:06:54.193Z,2041.00
2023-03-06T15:07:54.155Z,2036.00
2023-03-06T15:08:54.168Z,2024.00
2023-03-06T15:09:54.170Z,2020.00
2023-03-06T15:10:54.228Z,2021.00
2023-03-06T15:11:54.230Z,2022.00
2023-03-06T15:12:54.193Z,2028.00
2023-03-06T15:13:54.213Z,2026.00
2023-03-06T15:14:54.212Z,2024.00
2023-03-06T15:15:54.263Z,2021.00
2023-03-06T15:16:54.248Z,2018.00
2023-03-06T15:17:54.239Z,2014.00
2023-03-06T15:18:54.257Z,2013.00
2023-03-06T15:19:54.491Z,2015.00
2023-03-06T15:20:54.285Z,2012.00
2023-03-06T15:21:54.293Z,2005.00
2023-03-06T15:22:54.305Z,2002.00
2023-03-06T15:23:54.316Z,2000.00
2023-03-06T15:24:54.424Z,1999.00
2023-03-06T15:25:54.365Z,2000.00
2023-03-06T15:26:54.373Z,1993.00
2023-03-06T15:27:54.401Z,1991.00
2023-03-06T15:29:03.408Z,1990.00
2023-03-06T15:29:55.405Z,1987.00
2023-03-06T15:30:54.394Z,1983.00
2023-03-06T15:31:54.426Z,1978.00
2023-03-06T15:32:54.381Z,1974.00
2023-03-06T15:33:54.381Z,1973.00
2023-03-06T15:34:54.402Z,1969.00
2023-03-06T15:35:54.402Z,1967.00
2023-03-06T15:36:54.391Z,1962.00
2023-03-06T15:37:54.358Z,1955.00
2023-03-06T15:38:54.350Z,1948.00
2023-03-06T15:39:54.351Z,1947.00
2023-03-06T15:40:54.340Z,1944.00
2023-03-06T15:41:54.331Z,1940.00
2023-03-06T15:42:54.330Z,1940.00
2023-03-06T15:43:54.997Z,1938.00
2023-03-06T15:44:54.319Z,1929.00
2023-03-06T15:45:54.311Z,1920.00
2023-03-06T15:47:07.784Z,1915.00
2023-03-06T15:47:55.293Z,1910.00
2023-03-06T15:48:54.287Z,1913.00
2023-03-06T15:49:54.283Z,1915.00
2023-03-06T15:50:54.294Z,1912.00
2023-03-06T15:51:54.264Z,1909.00
2023-03-06T15:52:54.255Z,1906.00
2023-03-06T15:53:59.782Z,1908.00
2023-03-06T15:54:55.260Z,1909.00
2023-03-06T15:55:54.250Z,1910.00
2023-03-06T15:56:54.232Z,1908.00
2023-03-06T15:57:54.226Z,1913.00
2023-03-06T15:58:55.002Z,1913.00
2023-03-06T15:59:54.238Z,1911.00
2023-03-06T16:00:54.252Z,1907.00
2023-03-06T16:01:54.208Z,1903.00
2023-03-06T16:02:54.186Z,1898.00
2023-03-06T16:03:54.204Z,1897.00
2023-03-06T16:04:54.215Z,1891.00
2023-03-06T16:05:54.168Z,1893.00
2023-03-06T16:06:54.168Z,1892.00
2023-03-06T16:07:54.172Z,1887.00
2023-03-06T16:08:54.230Z,1886.00
2023-03-06T16:09:54.257Z,1883.00
2023-03-06T16:10:54.312Z,1877.00
2023-03-06T16:11:54.355Z,1880.00
2023-03-06T16:12:54.413Z,1875.00
2023-03-06T16:13:54.456Z,1871.00
2023-03-06T16:14:54.506Z,1872.00
2023-03-06T16:15:55.010Z,1873.00
2023-03-06T16:16:54.676Z,1874.00
2023-03-06T16:17:54.671Z,1874.00
2023-03-06T16:18:54.728Z,1872.00
2023-03-06T16:19:54.782Z,1865.00
2023-03-06T16:20:54.841Z,1858.00
2023-03-06T16:21:54.910Z,1853.00
2023-03-06T16:22:54.929Z,1851.00
2023-03-06T16:23:54.999Z,1846.00
2023-03-06T16:24:55.051Z,1844.00
2023-03-06T16:25:55.110Z,1843.00
2023-03-06T16:26:55.189Z,1846.00
2023-03-06T16:27:55.215Z,1845.00
2023-03-06T16:28:55.265Z,1847.00
2023-03-06T16:29:55.304Z,1844.00
2023-03-06T16:30:55.461Z,1838.00
2023-03-06T16:31:55.496Z,1835.00
2023-03-06T16:32:55.478Z,1829.00
2023-03-06T16:33:55.542Z,1821.00
2023-03-06T16:34:55.603Z,1816.00
2023-03-06T16:35:55.692Z,1816.00
2023-03-06T16:36:55.723Z,1813.00
2023-03-06T16:37:55.780Z,1807.00
2023-03-06T16:38:55.855Z,1808.00
2023-03-06T16:39:55.901Z,1811.00
2023-03-06T16:40:55.963Z,1813.00
2023-03-06T16:41:56.032Z,1812.00
2023-03-06T16:42:56.153Z,1811.00
2023-03-06T16:43:56.196Z,1806.00
2023-03-06T16:44:56.238Z,1802.00
2023-03-06T16:45:56.322Z,1802.00
2023-03-06T16:46:56.382Z,1803.00
2023-03-06T16:47:57.820Z,1801.00
2023-03-06T16:48:56.436Z,1798.00
2023-03-06T16:49:56.515Z,1799.00
2023-03-06T16:50:56.559Z,1797.00
2023-03-06T16:51:56.612Z,1799.00
2023-03-06T16:52:56.691Z,1794.00
2023-03-06T16:53:56.753Z,1792.00
2023-03-06T16:54:56.796Z,1788.00
2023-03-06T16:55:56.842Z,1785.00
2023-03-06T16:56:56.900Z,1782.00
2023-03-06T16:57:56.963Z,1783.00
2023-03-06T16:58:57.019Z,1778.00
2023-03-06T16:59:57.128Z,1773.00
2023-03-06T17:00:57.122Z,1771.00
2023-03-06T17:11:57.314Z,1744.00
2023-03-06T17:12:57.321Z,1737.00
2023-03-06T17:13:57.319Z,1738.00
2023-03-06T17:14:57.344Z,1740.00
2023-03-06T17:15:57.359Z,1741.00
2023-03-06T17:16:57.346Z,1740.00
2023-03-06T17:17:57.353Z,1738.00
2023-03-06T17:18:57.352Z,1737.00
2023-03-06T17:19:57.357Z,1736.00
2023-03-06T17:20:57.363Z,1732.00
2023-03-06T17:21:57.350Z,1725.00
2023-03-06T17:22:57.363Z,1721.00
2023-03-06T17:23:57.389Z,1721.00
2023-03-06T17:24:57.433Z,1721.00
2023-03-06T17:25:57.514Z,1717.00
2023-03-06T17:26:57.460Z,1714.00
2023-03-06T17:27:57.493Z,1710.00
2023-03-06T17:28:57.524Z,1708.00
2023-03-06T17:29:57.527Z,1706.00
2023-03-06T17:30:57.600Z,1700.00
2023-03-06T17:31:57.564Z,1694.00
2023-03-06T17:32:57.575Z,1691.00
2023-03-06T17:33:57.591Z,1689.00
2023-03-06T17:34:57.590Z,1686.00
2023-03-06T17:35:57.665Z,1684.00
2023-03-06T17:36:57.643Z,1685.00
2023-03-06T17:37:57.627Z,1683.00
2023-03-06T17:38:57.626Z,1683.00
2023-03-06T17:39:57.638Z,1683.00
2023-03-06T17:40:57.635Z,1684.00
2023-03-06T17:41:57.706Z,1679.00
2023-03-06T17:42:57.633Z,1677.00
2023-03-06T17:43:57.632Z,1672.00
2023-03-06T17:44:57.641Z,1672.00
2023-03-06T17:45:57.640Z,1669.00
2023-03-06T17:46:57.626Z,1673.00
2023-03-06T17:47:57.637Z,1672.00
2023-03-06T17:48:57.638Z,1672.00
2023-03-06T17:49:57.631Z,1673.00
2023-03-06T17:50:57.654Z,1674.00
2023-03-06T17:51:57.646Z,1667.00
2023-03-06T17:52:57.640Z,1663.00
2023-03-06T17:53:57.671Z,1661.00
2023-03-06T17:54:57.631Z,1660.00
2023-03-06T17:55:57.641Z,1665.00
2023-03-06T17:56:57.633Z,1661.00
2023-03-06T17:57:57.642Z,1660.00
2023-03-06T17:58:57.637Z,1659.00
2023-03-06T17:59:57.701Z,1656.00
2023-03-06T18:00:57.672Z,1651.00
2023-03-06T18:01:57.705Z,1647.00
2023-03-06T18:02:57.676Z,1644.00
2023-03-06T18:03:57.678Z,1642.00
2023-03-06T18:04:57.747Z,1642.00
2023-03-06T18:05:57.703Z,1643.00
2023-03-06T18:06:57.691Z,1643.00
2023-03-06T18:07:58.053Z,1644.00
2023-03-06T18:08:57.740Z,1637.00
2023-03-06T18:09:57.772Z,1633.00
2023-03-06T18:10:57.768Z,1630.00
2023-03-06T18:11:57.757Z,1629.00
2023-03-06T18:12:57.782Z,1626.00
2023-03-06T18:13:57.791Z,1623.00
2023-03-06T18:14:57.790Z,1621.00
2023-03-06T18:15:57.801Z,1619.00
2023-03-06T18:16:57.805Z,1620.00
2023-03-06T18:17:57.790Z,1620.00
2023-03-06T18:18:57.798Z,1617.00
2023-03-06T18:19:57.869Z,1616.00
2023-03-06T18:20:57.806Z,1615.00
2023-03-06T18:21:57.812Z,1608.00
2023-03-06T18:22:57.809Z,1608.00
2023-03-06T18:23:57.849Z,1606.00
2023-03-06T18:24:57.836Z,1603.00
2023-03-06T18:25:57.850Z,1603.00
2023-03-06T18:26:57.869Z,1602.00
2023-03-06T18:27:57.876Z,1596.00
2023-03-06T18:28:57.865Z,1593.00
2023-03-06T18:29:57.905Z,1586.00
2023-03-06T18:30:57.875Z,1586.00
2023-03-06T18:31:57.975Z,1588.00
2023-03-06T18:32:57.907Z,1589.00
2023-03-06T18:33:57.918Z,1588.00
2023-03-06T18:34:57.925Z,1588.00
2023-03-06T18:35:57.964Z,1587.00
2023-03-06T18:36:57.942Z,1587.00
2023-03-06T18:37:57.939Z,1583.00
2023-03-06T18:38:57.954Z,1581.00
2023-03-06T18:39:58.054Z,1580.00
2023-03-06T18:40:57.962Z,1576.00
2023-03-06T18:41:57.973Z,1577.00
2023-03-06T18:42:57.972Z,1575.00
2023-03-06T18:43:57.986Z,1573.00
2023-03-06T18:44:58.061Z,1574.00
2023-03-06T18:45:58.036Z,1573.00
2023-03-06T18:46:58.023Z,1572.00
2023-03-06T18:47:57.989Z,1573.00
2023-03-06T18:48:58.017Z,1574.00
2023-03-06T18:49:58.014Z,1569.00
2023-03-06T18:50:58.060Z,1565.00
2023-03-06T18:51:58.066Z,1560.00
2023-03-06T18:52:58.076Z,1558.00
2023-03-06T18:53:58.185Z,1553.00
2023-03-06T18:54:58.112Z,1554.00
2023-03-06T18:55:58.211Z,1552.00
2023-03-06T18:56:58.212Z,1549.00
2023-03-06T18:57:58.221Z,1542.00
2023-03-06T18:58:58.240Z,1545.00
2023-03-06T18:59:58.232Z,1545.00
2023-03-06T19:00:59.486Z,1540.00
2023-03-06T19:01:58.284Z,1536.00
2023-03-06T19:02:58.270Z,1536.00
2023-03-06T19:03:58.288Z,1535.00
2023-03-06T19:04:58.287Z,1536.00
2023-03-06T19:05:58.327Z,1532.00
2023-03-06T19:06:58.340Z,1531.00
2023-03-06T19:07:58.348Z,1528.00
2023-03-06T19:08:58.365Z,1525.00
2023-03-06T19:09:58.370Z,1525.00
2023-03-06T19:10:58.396Z,1522.00
2023-03-06T19:11:58.420Z,1521.00
2023-03-06T19:12:58.420Z,1521.00
2023-03-06T19:13:58.431Z,1516.00
2023-03-06T19:14:58.431Z,1514.00
2023-03-06T19:15:58.531Z,1520.00
2023-03-06T19:16:58.546Z,1518.00
2023-03-06T19:17:58.567Z,1517.00
2023-03-06T19:18:58.567Z,1513.00
2023-03-06T19:19:58.583Z,1510.00
2023-03-06T19:20:58.599Z,1508.00
2023-03-06T19:21:58.735Z,1505.00
2023-03-06T19:22:58.659Z,1502.00
2023-03-06T19:23:58.672Z,1502.00
2023-03-06T19:24:58.688Z,1500.00
2023-03-06T19:25:59.581Z,1502.00
2023-03-06T19:26:58.764Z,1503.00
2023-03-06T19:27:59.590Z,1503.00
2023-03-06T19:28:58.778Z,1502.00
2023-03-06T19:29:58.800Z,1502.00
2023-03-06T19:30:58.833Z,1501.00
2023-03-06T19:31:58.980Z,1499.00
2023-03-06T19:32:58.863Z,1497.00
2023-03-06T19:33:58.924Z,1494.00
2023-03-06T19:34:58.923Z,1491.00
2023-03-06T19:35:58.979Z,1490.00
2023-03-06T19:36:58.959Z,1490.00
2023-03-06T19:37:58.976Z,1491.00
2023-03-06T19:38:59.046Z,1488.00
2023-03-06T19:39:59.057Z,1488.00
2023-03-06T19:40:59.592Z,1484.00
2023-03-06T19:41:59.053Z,1484.00
2023-03-06T19:42:59.058Z,1482.00
2023-03-06T19:43:59.113Z,1482.00
2023-03-06T19:44:59.158Z,1477.00
2023-03-06T19:45:59.115Z,1474.00
2023-03-06T19:46:59.140Z,1473.00
2023-03-06T19:47:59.149Z,1474.00
2023-03-06T19:48:59.184Z,1471.00
2023-03-06T19:49:59.195Z,1467.00
2023-03-06T19:50:59.215Z,1468.00
2023-03-06T19:51:59.237Z,1468.00
2023-03-06T19:52:59.268Z,1464.00
2023-03-06T19:53:59.278Z,1463.00
2023-03-06T19:54:59.303Z,1459.00
2023-03-06T19:55:59.337Z,1454.00
2023-03-06T19:56:59.357Z,1455.00
2023-03-06T19:57:59.370Z,1456.00
2023-03-06T19:58:59.399Z,1452.00
2023-03-06T19:59:59.418Z,1448.00
2023-03-06T20:00:59.465Z,1445.00
2023-03-06T20:01:59.477Z,1445.00
2023-03-06T20:02:59.508Z,1446.00
2023-03-06T20:03:59.913Z,1445.00
2023-03-06T20:04:59.555Z,1443.00
2023-03-06T20:05:59.569Z,1440.00
2023-03-06T20:06:59.600Z,1436.00
2023-03-06T20:07:59.617Z,1435.00
2023-03-06T20:09:00.131Z,1435.00
2023-03-06T20:09:59.659Z,1435.00
2023-03-06T20:10:59.710Z,1436.00
2023-03-06T20:11:59.692Z,1437.00
2023-03-06T20:12:59.723Z,1436.00
2023-03-06T20:13:59.742Z,1430.00
2023-03-06T20:14:59.775Z,1428.00
2023-03-06T20:15:59.840Z,1426.00
2023-03-06T20:16:59.829Z,1421.00
2023-03-06T20:17:59.844Z,1420.00
2023-03-06T20:18:59.871Z,1416.00
2023-03-06T20:19:59.897Z,1415.00
2023-03-06T20:20:59.912Z,1414.00
2023-03-06T20:22:00.612Z,1414.00
2023-03-06T20:23:00.022Z,1409.00
2023-03-06T20:23:59.989Z,1407.00
2023-03-06T20:25:00.015Z,1407.00
2023-03-06T20:26:00.044Z,1406.00
2023-03-06T20:27:00.063Z,1406.00
2023-03-06T20:28:00.122Z,1405.00
2023-03-06T20:29:00.094Z,1403.00
2023-03-06T20:30:00.139Z,1401.00
2023-03-06T20:31:00.232Z,1400.00
2023-03-06T20:32:00.180Z,1395.00
2023-03-06T20:33:00.215Z,1395.00
2023-03-06T20:34:00.229Z,1396.00
2023-03-06T20:35:01.120Z,1397.00
2023-03-06T20:36:00.372Z,1394.00
2023-03-06T20:37:00.314Z,1391.00
2023-03-06T20:38:01.105Z,1387.00
2023-03-06T20:39:00.370Z,1385.00
2023-03-06T20:40:00.404Z,1382.00
2023-03-06T20:41:00.437Z,1379.00
2023-03-06T20:42:00.435Z,1380.00
2023-03-06T20:43:00.479Z,1376.00
2023-03-06T20:44:00.522Z,1373.00
2023-03-06T20:45:00.528Z,1373.00
2023-03-06T20:46:00.603Z,1374.00
2023-03-06T20:47:00.569Z,1374.00
2023-03-06T20:48:00.603Z,1375.00
2023-03-06T20:49:00.632Z,1373.00
2023-03-06T20:50:01.682Z,1369.00
2023-03-06T20:51:00.697Z,1369.00
2023-03-06T20:52:00.709Z,1368.00
2023-03-06T20:53:00.736Z,1365.00
2023-03-06T20:54:00.759Z,1362.00
2023-03-06T20:55:00.793Z,1361.00
2023-03-06T20:56:01.118Z,1358.00
2023-03-06T20:57:00.838Z,1356.00
2023-03-06T20:58:00.859Z,1352.00
2023-03-06T20:59:00.899Z,1350.00
2023-03-06T21:00:01.139Z,1347.00
2023-03-06T21:01:02.456Z,1348.00
2023-03-06T21:02:01.052Z,1348.00
2023-03-06T22:10:03.677Z,1264.00
2023-03-06T22:11:03.648Z,1260.00
2023-03-06T22:16:03.650Z,1250.00
2023-03-06T22:24:03.651Z,1243.00
2023-03-06T22:27:03.664Z,1245.00
2023-03-06T22:32:03.391Z,1239.00
2023-03-06T22:35:03.323Z,1234.00
2023-03-06T22:36:03.365Z,1232.00
2023-03-06T22:37:03.370Z,1233.00
2023-03-06T22:38:03.393Z,1233.00
2023-03-06T22:39:03.399Z,1233.00
2023-03-06T22:40:03.436Z,1232.00
2023-03-06T22:41:03.474Z,1231.00
2023-03-06T22:42:03.484Z,1227.00
2023-03-06T22:43:03.503Z,1228.00
2023-03-06T22:44:03.527Z,1226.00
2023-03-06T22:45:03.536Z,1224.00
2023-03-06T22:46:03.623Z,1224.00
2023-03-06T22:47:03.593Z,1220.00
2023-03-06T22:48:10.822Z,1217.00
2023-03-06T22:49:04.613Z,1213.00
2023-03-06T22:50:03.596Z,1215.00
2023-03-06T22:51:03.596Z,1212.00
2023-03-06T22:52:03.578Z,1209.00
2023-03-06T22:53:03.574Z,1208.00
2023-03-06T22:54:03.576Z,1207.00
2023-03-06T22:55:03.566Z,1209.00
2023-03-06T22:56:03.557Z,1209.00
2023-03-06T22:57:03.557Z,1209.00
2023-03-06T22:58:03.550Z,1208.00
2023-03-06T22:59:03.531Z,1208.00
2023-03-06T23:00:03.547Z,1206.00
2023-03-06T23:01:03.547Z,1205.00
2023-03-06T23:02:03.519Z,1206.00
2023-03-06T23:03:03.587Z,1210.00
2023-03-06T23:04:03.565Z,1211.00
2023-03-06T23:05:03.504Z,1209.00
2023-03-06T23:06:03.498Z,1209.00
2023-03-06T23:07:03.509Z,1206.00
2023-03-06T23:08:03.536Z,1202.00
2023-03-06T23:09:03.640Z,1201.00
2023-03-06T23:10:03.590Z,1199.00
2023-03-06T23:11:03.616Z,1197.00
2023-03-06T23:12:03.638Z,1197.00
2023-03-06T23:13:03.664Z,1198.00
2023-03-06T23:14:03.685Z,1198.00
2023-03-06T23:15:03.771Z,1195.00
2023-03-06T23:16:03.860Z,1191.00
2023-03-06T23:27:04.030Z,1179.00
2023-03-06T23:28:04.047Z,1179.00
2023-03-06T23:29:04.069Z,1179.00
2023-03-06T23:30:04.074Z,1180.00
2023-03-06T23:31:04.152Z,1180.00
2023-03-06T23:32:04.174Z,1179.00
2023-03-06T23:33:04.146Z,1176.00
2023-03-06T23:34:04.178Z,1173.00
2023-03-06T23:35:04.199Z,1171.00
2023-03-06T23:36:04.209Z,1169.00
2023-03-06T23:37:04.248Z,1168.00
2023-03-06T23:38:04.278Z,1170.00
2023-03-06T23:39:04.291Z,1165.00
2023-03-06T23:40:04.316Z,1161.00
2023-03-06T23:41:04.374Z,1159.00
2023-03-06T23:42:04.364Z,1155.00
2023-03-06T23:43:04.687Z,1157.00
2023-03-06T23:44:04.411Z,1157.00
2023-03-06T23:45:04.444Z,1154.00
2023-03-06T23:46:04.500Z,1154.00
2023-03-06T23:47:04.485Z,1150.00
2023-03-06T23:48:04.516Z,1150.00
2023-03-06T23:49:04.546Z,1148.00
2023-03-06T23:50:04.579Z,1148.00
2023-03-06T23:51:04.599Z,1151.00
2023-03-06T23:52:04.646Z,1155.00
2023-03-06T23:53:04.674Z,1155.00
2023-03-06T23:54:04.719Z,1155.00
2023-03-06T23:55:04.809Z,1153.00
2023-03-06T23:56:04.754Z,1148.00
2023-03-06T23:57:04.805Z,1147.00
2023-03-06T23:58:05.690Z,1144.00
2023-03-06T23:59:04.828Z,1140.00
